createdAt,value
2018-08-06T07:05:54.532Z,96427.75
2018-08-06T07:08:23.389Z,96432.10
2018-08-06T07:10:52.890Z,96425.38
2018-08-06T07:13:21.572Z,96424.85
2018-08-06T07:15:50.243Z,96426.48
2018-08-06T07:21:21.875Z,96428.36
2018-08-06T07:23:51.376Z,96426.87
2018-08-06T07:26:20.807Z,96424.22
2018-08-06T07:28:50.813Z,96422.59
2018-08-06T07:31:20.281Z,96431.91
2018-08-06T07:33:49.739Z,96415.56
2018-08-06T07:36:18.342Z,96420.69
2018-08-06T07:38:46.918Z,96418.58
2018-08-06T07:41:15.584Z,96417.07
2018-08-06T07:43:44.212Z,96423.22
2018-08-06T07:46:13.100Z,96417.98
2018-08-06T07:48:57.395Z,96415.12
2018-08-06T07:51:32.097Z,96413.00
2018-08-06T07:54:01.701Z,96411.08
2018-08-06T07:56:30.418Z,96418.34
2018-08-06T07:58:59.008Z,96419.22
2018-08-06T08:01:27.631Z,96411.55
2018-08-06T08:03:56.368Z,96419.12
2018-08-06T08:06:25.062Z,96411.27
2018-08-06T08:08:53.650Z,96404.95
2018-08-06T08:11:22.212Z,96415.92
2018-08-06T08:13:50.868Z,96408.39
2018-08-06T08:16:19.595Z,96408.92
2018-08-06T08:18:48.237Z,96409.52
2018-08-06T08:21:16.924Z,96401.92
2018-08-06T08:23:45.547Z,96403.84
2018-08-06T08:26:14.179Z,96399.73
2018-08-06T08:28:42.855Z,96406.30
2018-08-06T08:31:12.367Z,96405.95
2018-08-06T08:33:41.014Z,96402.69
2018-08-06T08:36:09.758Z,96407.25
2018-08-06T08:38:38.287Z,96408.39
2018-08-06T08:41:07.007Z,96410.86
2018-08-06T08:43:35.628Z,96412.17
2018-08-06T08:46:04.260Z,96408.29
2018-08-06T08:48:32.969Z,96400.56
2018-08-06T08:51:01.602Z,96412.12
2018-08-06T08:53:30.284Z,96409.94
2018-08-06T08:55:58.997Z,96409.53
2018-08-06T08:58:27.582Z,96403.11
2018-08-06T09:00:56.361Z,96402.39
2018-08-06T09:03:25.087Z,96402.41
2018-08-06T09:05:54.012Z,96396.84
2018-08-06T09:08:23.401Z,96393.80
2018-08-06T09:10:51.996Z,96391.47
2018-08-06T09:13:20.601Z,96390.23
2018-08-06T09:15:49.200Z,96378.60
2018-08-06T09:18:17.964Z,96376.70
2018-08-06T09:21:01.819Z,96384.98
2018-08-06T09:23:30.459Z,96380.14
2018-08-06T09:28:07.180Z,96378.23
2018-08-06T09:30:35.814Z,96380.28
2018-08-06T09:33:04.416Z,96375.16
2018-08-06T09:35:33.229Z,96373.25
2018-08-06T09:38:01.973Z,96376.17
2018-08-06T09:40:30.658Z,96378.02
2018-08-06T09:42:59.400Z,96378.38
2018-08-06T09:45:28.008Z,96379.61
2018-08-06T09:47:56.712Z,96374.09
2018-08-06T09:50:25.368Z,96381.63
2018-08-06T09:52:54.667Z,96374.11
2018-08-06T09:55:28.658Z,96370.80
2018-08-06T09:58:18.408Z,96374.62
2018-08-06T10:00:53.016Z,96375.36
2018-08-06T10:03:21.620Z,96373.73
2018-08-06T10:05:50.363Z,96379.78
2018-08-06T10:08:18.867Z,96374.36
2018-08-06T10:10:47.548Z,96373.52
2018-08-06T10:13:16.265Z,96378.55
2018-08-06T10:15:44.864Z,96374.50
2018-08-06T10:18:13.476Z,96390.81
2018-08-06T10:20:42.203Z,96374.03
2018-08-06T10:23:11.021Z,96370.78
2018-08-06T10:25:39.813Z,96370.70
2018-08-06T10:28:08.380Z,96362.08
2018-08-06T10:30:37.131Z,96368.92
2018-08-06T10:33:06.837Z,96372.77
2018-08-06T10:35:36.357Z,96366.38
2018-08-06T10:38:04.962Z,96368.28
2018-08-06T10:40:33.703Z,96367.86
2018-08-06T10:43:02.197Z,96363.89
2018-08-06T10:45:30.780Z,96364.84
2018-08-06T10:47:59.408Z,96367.23
2018-08-06T10:50:28.032Z,96368.47
2018-08-06T10:52:56.629Z,96360.65
2018-08-06T10:55:25.268Z,96362.36
2018-08-06T10:57:53.972Z,96362.94
2018-08-06T11:00:23.589Z,96360.11
2018-08-06T11:02:52.453Z,96355.30
2018-08-06T11:05:21.408Z,96358.76
2018-08-06T11:07:50.068Z,96352.13
2018-08-06T11:10:21.012Z,96351.81
2018-08-06T11:12:49.640Z,96346.82
2018-08-06T11:15:20.361Z,96342.94
2018-08-06T11:17:49.161Z,96346.27
2018-08-06T11:20:18.495Z,96340.34
2018-08-06T11:22:47.147Z,96341.77
2018-08-06T11:25:17.816Z,96327.77
2018-08-06T11:27:46.640Z,96334.55
2018-08-06T11:30:17.907Z,96338.16
2018-08-06T11:32:47.404Z,96336.61
2018-08-06T11:47:35.351Z,96325.00
2018-08-06T11:50:04.551Z,96318.23
2018-08-06T11:52:33.173Z,96318.99
2018-08-06T12:09:19.240Z,96304.27
2018-08-06T12:11:47.817Z,96305.46
2018-08-06T12:19:58.116Z,96287.00
2018-08-06T12:22:27.024Z,96285.31
2018-08-06T12:24:55.559Z,96282.89
2018-08-06T12:27:24.362Z,96286.17
2018-08-06T12:29:53.080Z,96284.78
2018-08-06T12:33:57.103Z,96285.17
2018-08-06T12:36:25.836Z,96272.93
2018-08-06T12:39:11.072Z,96274.95
2018-08-06T12:41:39.688Z,96275.39
2018-08-06T12:44:10.448Z,96261.17
2018-08-06T12:46:39.214Z,96267.29
2018-08-06T12:49:08.586Z,96257.38
2018-08-06T12:51:37.493Z,96262.15
2018-08-06T12:54:06.620Z,96256.59
2018-08-06T12:56:35.333Z,96253.62
2018-08-06T12:59:04.050Z,96247.13
2018-08-06T13:01:32.651Z,96246.95
2018-08-06T13:04:01.296Z,96252.48
2018-08-06T13:06:29.984Z,96241.41
2018-08-06T13:08:58.712Z,96234.69
2018-08-06T13:11:27.530Z,96240.91
2018-08-06T13:13:56.111Z,96232.70
2018-08-06T13:16:25.507Z,96228.25
2018-08-06T13:18:54.046Z,96227.95
2018-08-06T13:21:22.623Z,96220.75
2018-08-06T13:23:51.218Z,96216.62
2018-08-06T13:26:20.576Z,96213.61
2018-08-06T13:28:49.144Z,96206.77
2018-08-06T13:31:18.626Z,96212.28
2018-08-06T13:33:47.227Z,96206.10
2018-08-06T13:36:16.229Z,96213.03
2018-08-06T13:38:44.785Z,96213.20
2018-08-06T13:41:13.463Z,96210.88
2018-08-06T13:43:42.035Z,96212.29
2018-08-06T13:46:10.687Z,96200.88
2018-08-06T13:48:39.393Z,96203.28
2018-08-06T13:51:08.174Z,96208.88
2018-08-06T13:53:36.790Z,96206.63
2018-08-06T13:56:05.485Z,96200.59
2018-08-06T13:58:34.115Z,96197.47
2018-08-06T14:01:02.760Z,96195.73
2018-08-06T14:03:31.470Z,96195.71
2018-08-06T14:06:00.860Z,96199.44
2018-08-06T14:08:29.613Z,96198.52
2018-08-06T14:10:58.195Z,96195.36
2018-08-06T14:13:26.800Z,96191.09
2018-08-06T14:15:55.449Z,96185.92
2018-08-06T14:18:24.208Z,96179.59
2018-08-06T14:20:52.791Z,96176.72
2018-08-06T14:23:21.395Z,96179.44
2018-08-06T14:25:50.068Z,96180.88
2018-08-06T14:28:18.611Z,96178.25
2018-08-06T14:30:47.227Z,96176.19
2018-08-06T14:33:15.799Z,96177.28
2018-08-06T14:35:44.390Z,96169.97
2018-08-06T14:38:13.012Z,96165.38
2018-08-06T14:40:41.610Z,96168.89
2018-08-06T14:43:10.170Z,96166.34
2018-08-06T14:45:38.733Z,96162.97
2018-08-06T14:48:07.340Z,96160.86
2018-08-06T14:50:35.975Z,96167.20
2018-08-06T14:53:04.631Z,96159.47
2018-08-06T14:55:33.262Z,96153.91
2018-08-06T14:58:02.555Z,96151.52
2018-08-06T15:00:31.123Z,96142.59
2018-08-06T15:02:59.712Z,96145.22
2018-08-06T15:05:28.338Z,96141.58
2018-08-06T15:07:56.955Z,96131.48
2018-08-06T15:10:25.572Z,96133.44
2018-08-06T15:12:54.216Z,96126.19
2018-08-06T15:15:22.933Z,96133.42
2018-08-06T15:17:51.535Z,96127.86
2018-08-06T15:20:20.106Z,96123.95
2018-08-06T15:22:48.729Z,96114.87
2018-08-06T15:25:20.881Z,96108.08
2018-08-06T15:27:50.489Z,96112.90
2018-08-06T15:30:19.143Z,96112.33
2018-08-06T15:32:47.696Z,96108.88
2018-08-06T15:35:16.392Z,96112.23
2018-08-06T15:37:45.460Z,96108.22
2018-08-06T15:40:16.198Z,96105.36
2018-08-06T15:42:44.849Z,96101.50
2018-08-06T15:45:14.020Z,96100.91
2018-08-06T15:47:43.466Z,96093.28
2018-08-06T15:50:16.004Z,96095.99
2018-08-06T15:52:44.711Z,96091.98
2018-08-06T15:55:14.380Z,96089.65
2018-08-06T15:57:43.171Z,96085.72
2018-08-06T16:00:14.032Z,96080.67
2018-08-06T16:04:57.654Z,96084.94
2018-08-06T16:07:26.428Z,96083.40
2018-08-06T16:09:55.758Z,96081.83
2018-08-06T16:12:24.580Z,96083.66
2018-08-06T16:14:53.215Z,96081.88
2018-08-06T16:23:18.305Z,96079.98
2018-08-06T16:25:46.924Z,96083.86
2018-08-06T16:28:15.559Z,96078.50
2018-08-06T16:30:44.234Z,96077.84
2018-08-06T16:33:12.860Z,96083.07
2018-08-06T16:35:41.567Z,96077.57
2018-08-06T16:38:10.235Z,96080.31
2018-08-06T16:40:38.873Z,96082.41
2018-08-06T16:43:07.496Z,96081.63
2018-08-06T16:45:36.173Z,96082.14
2018-08-06T16:48:04.821Z,96076.95
2018-08-06T16:50:33.549Z,96080.72
2018-08-06T16:53:02.180Z,96077.28
2018-08-06T16:55:30.863Z,96084.18
2018-08-06T16:57:59.494Z,96080.64
2018-08-06T17:00:28.167Z,96078.77
2018-08-06T17:02:56.801Z,96078.50
2018-08-06T17:05:25.645Z,96078.98
2018-08-06T17:07:54.256Z,96086.38
2018-08-06T17:10:22.912Z,96082.87
2018-08-06T17:12:53.716Z,96082.31
2018-08-06T17:15:22.895Z,96083.29
2018-08-06T17:17:53.096Z,96081.16
2018-08-06T17:20:22.775Z,96079.22
2018-08-06T17:22:52.068Z,96081.47
2018-08-06T17:28:10.827Z,96084.25
2018-08-06T17:30:39.441Z,96080.86
2018-08-06T17:33:09.664Z,96080.16
2018-08-06T17:35:38.276Z,96082.87
2018-08-06T17:38:07.066Z,96082.22
2018-08-06T17:40:35.659Z,96082.09
2018-08-06T17:43:04.295Z,96083.28
2018-08-06T17:45:32.995Z,96082.58
2018-08-06T17:48:01.619Z,96078.71
2018-08-06T17:50:30.201Z,96081.05
2018-08-06T17:52:58.799Z,96081.92
2018-08-06T17:55:27.409Z,96085.98
2018-08-06T17:57:55.991Z,96084.05
2018-08-06T18:00:24.701Z,96083.54
2018-08-06T18:02:53.321Z,96083.70
2018-08-06T18:05:22.568Z,96087.33
2018-08-06T18:07:51.338Z,96085.60
2018-08-06T18:10:21.697Z,96082.23
2018-08-06T18:12:50.371Z,96087.39
2018-08-06T18:15:18.932Z,96085.63
2018-08-06T18:17:47.514Z,96092.17
2018-08-06T18:20:18.001Z,96092.06
2018-08-06T18:22:46.618Z,96097.66
2018-08-06T18:25:17.649Z,96098.94
2018-08-06T18:27:47.362Z,96104.16
2018-08-06T18:30:18.100Z,96109.70
2018-08-06T18:32:46.805Z,96113.94
2018-08-06T18:35:18.072Z,96113.80
2018-08-06T18:37:46.756Z,96108.39
2018-08-06T18:40:16.436Z,96112.97
2018-08-06T18:42:45.023Z,96109.39
2018-08-06T18:45:16.220Z,96120.70
2018-08-06T18:47:45.827Z,96123.83
2018-08-06T18:50:15.227Z,96124.33
2018-08-06T18:52:45.045Z,96120.61
2018-08-06T18:55:15.426Z,96134.38
2018-08-06T18:57:44.601Z,96141.84
2018-08-06T19:00:18.479Z,96143.24
2018-08-06T19:02:47.077Z,96138.34
2018-08-06T19:05:15.735Z,96144.33
2018-08-06T19:07:44.420Z,96142.75
2018-08-06T19:10:13.161Z,96154.70
2018-08-06T19:12:46.894Z,96154.48
2018-08-06T19:15:15.855Z,96154.48
2018-08-06T19:17:49.579Z,96152.47
2018-08-06T19:20:18.177Z,96158.39
2018-08-06T19:22:46.841Z,96147.55
2018-08-06T19:25:20.992Z,96166.30
2018-08-06T19:27:49.707Z,96169.23
2018-08-06T19:30:18.780Z,96171.54
2018-08-06T19:32:47.398Z,96169.91
2018-08-06T19:35:17.063Z,96175.33
2018-08-06T19:37:47.331Z,96182.31
2018-08-06T19:40:16.485Z,96183.50
2018-08-06T19:42:50.281Z,96181.81
2018-08-06T19:45:19.166Z,96186.25
2018-08-06T19:47:48.536Z,96187.43
2018-08-06T19:50:22.362Z,96198.55
2018-08-06T19:52:50.936Z,96185.75
2018-08-06T19:55:24.640Z,96182.94
2018-08-06T19:57:53.260Z,96176.98
2018-08-06T20:00:21.828Z,96172.33
2018-08-06T20:02:50.453Z,96176.55
2018-08-06T20:05:19.055Z,96176.66
2018-08-06T20:07:54.410Z,96171.86
2018-08-06T20:10:23.062Z,96168.75
2018-08-06T20:12:51.671Z,96168.55
2018-08-06T20:15:20.710Z,96170.08
2018-08-06T20:17:50.267Z,96173.07
2018-08-06T20:20:19.071Z,96175.52
2018-08-06T20:22:47.733Z,96172.17
2018-08-06T20:25:18.447Z,96173.27
2018-08-06T20:27:47.674Z,96171.19
2018-08-06T20:30:18.503Z,96168.66
2018-08-06T20:32:47.529Z,96175.50
2018-08-06T20:35:17.237Z,96181.05
2018-08-06T20:37:45.988Z,96175.82
2018-08-06T20:40:15.060Z,96175.79
2018-08-06T20:42:44.925Z,96173.70
2018-08-06T20:45:16.680Z,96175.67
2018-08-06T20:47:46.019Z,96175.06
2018-08-06T20:50:16.408Z,96178.78
2018-08-06T20:52:46.199Z,96177.56
2018-08-06T20:55:14.899Z,96178.17
2018-08-06T20:57:43.813Z,96179.84
2018-08-06T21:00:20.545Z,96178.12
2018-08-06T21:02:50.141Z,96175.30
2018-08-06T21:05:18.940Z,96177.00
2018-08-06T21:07:47.609Z,96180.93
2018-08-06T21:10:17.121Z,96180.93
2018-08-06T21:12:46.295Z,96184.52
2018-08-06T21:15:16.438Z,96179.80
2018-08-06T21:17:45.439Z,96180.02
2018-08-06T21:20:16.179Z,96184.37
2018-08-06T21:22:46.082Z,96182.44
2018-08-06T21:25:14.829Z,96180.23
2018-08-06T21:27:44.709Z,96187.55
2018-08-06T21:30:15.437Z,96186.00
2018-08-06T21:32:45.998Z,96188.34
2018-08-06T21:35:15.697Z,96188.42
2018-08-06T21:37:44.460Z,96186.08
2018-08-06T21:40:13.952Z,96185.16
2018-08-06T21:42:43.302Z,96184.98
2018-08-06T21:45:12.574Z,96184.07
2018-08-06T21:47:41.172Z,96176.49
2018-08-06T21:50:10.741Z,96175.44
2018-08-06T21:52:39.352Z,96180.45
2018-08-06T21:55:08.727Z,96179.47
2018-08-06T21:57:37.578Z,96180.02
2018-08-06T22:00:11.956Z,96179.05
2018-08-06T22:02:41.390Z,96181.23
2018-08-06T22:05:10.172Z,96174.37
2018-08-06T22:07:42.129Z,96173.34
2018-08-06T22:10:10.904Z,96165.05
2018-08-06T22:12:39.504Z,96178.41
2018-08-06T22:15:08.451Z,96176.62
2018-08-06T22:20:48.038Z,96170.00
2018-08-06T22:23:16.956Z,96173.97
2018-08-06T22:25:45.576Z,96170.47
2018-08-06T22:28:14.320Z,96176.29
2018-08-06T22:30:43.280Z,96174.20
2018-08-06T22:33:12.776Z,96172.20
2018-08-06T22:35:41.477Z,96179.83
2018-08-06T22:38:10.257Z,96168.77
2018-08-06T22:40:39.225Z,96171.99
2018-08-06T22:43:07.883Z,96165.34
2018-08-06T22:45:36.590Z,96164.99
2018-08-06T22:48:05.519Z,96166.45
2018-08-06T22:50:34.346Z,96164.23
2018-08-06T22:53:02.933Z,96165.86
2018-08-06T22:55:41.444Z,96164.23
2018-08-06T22:58:10.017Z,96155.14
2018-08-06T23:00:38.682Z,96158.23
2018-08-06T23:03:08.954Z,96152.25
2018-08-06T23:05:37.723Z,96152.39
2018-08-06T23:08:06.441Z,96152.02
2018-08-06T23:10:35.064Z,96147.06
2018-08-06T23:13:04.217Z,96148.39
2018-08-06T23:15:32.842Z,96147.47
2018-08-06T23:18:01.431Z,96144.04
2018-08-06T23:20:30.215Z,96142.56
2018-08-06T23:22:58.885Z,96141.00
2018-08-06T23:25:39.716Z,96141.43
2018-08-06T23:28:08.492Z,96140.20
2018-08-06T23:30:37.312Z,96135.86
2018-08-06T23:33:06.391Z,96133.11
2018-08-06T23:35:35.032Z,96133.05
2018-08-06T23:38:03.591Z,96132.18
2018-08-06T23:40:32.291Z,96124.91
2018-08-06T23:43:00.904Z,96123.44
2018-08-06T23:45:29.552Z,96125.09
2018-08-06T23:47:58.229Z,96120.27
2018-08-06T23:50:27.041Z,96118.39
2018-08-06T23:52:55.683Z,96112.55
2018-08-06T23:55:24.621Z,96119.58
2018-08-06T23:57:53.219Z,96109.34
